sensor_id;sensor_type;location;lat;lon;timestamp;P1;durP1;ratioP1;P2;durP2;ratioP2
18449;SDS011;9354;50.194;7.690;2023-01-24T00:00:22;9.43;;;4.97;;
18449;SDS011;9354;50.194;7.690;2023-01-24T00:02:51;10.87;;;4.77;;
18449;SDS011;9354;50.194;7.690;2023-01-24T00:05:19;10.47;;;5.40;;
18449;SDS011;9354;50.194;7.690;2023-01-24T00:07:46;12.17;;;5.40;;
18449;SDS011;9354;50.194;7.690;2023-01-24T00:10:14;10.70;;;5.33;;
18449;SDS011;9354;50.194;7.690;2023-01-24T00:12:41;8.83;;;5.13;;
18449;SDS011;9354;50.194;7.690;2023-01-24T00:15:09;9.70;;;4.80;;
18449;SDS011;9354;50.194;7.690;2023-01-24T00:17:37;10.27;;;5.47;;
18449;SDS011;9354;50.194;7.690;2023-01-24T00:20:06;9.33;;;4.63;;
18449;SDS011;9354;50.194;7.690;2023-01-24T00:22:34;9.83;;;5.33;;
18449;SDS011;9354;50.194;7.690;2023-01-24T00:25:02;10.93;;;5.13;;
18449;SDS011;9354;50.194;7.690;2023-01-24T00:27:30;10.70;;;5.40;;
18449;SDS011;9354;50.194;7.690;2023-01-24T00:30:00;10.80;;;5.53;;
18449;SDS011;9354;50.194;7.690;2023-01-24T00:32:27;9.60;;;5.07;;
18449;SDS011;9354;50.194;7.690;2023-01-24T00:34:54;10.67;;;5.23;;
18449;SDS011;9354;50.194;7.690;2023-01-24T00:37:23;8.03;;;4.80;;
18449;SDS011;9354;50.194;7.690;2023-01-24T00:39:51;9.30;;;4.87;;
18449;SDS011;9354;50.194;7.690;2023-01-24T00:42:18;10.27;;;4.87;;
18449;SDS011;9354;50.194;7.690;2023-01-24T00:44:45;11.17;;;4.90;;
18449;SDS011;9354;50.194;7.690;2023-01-24T00:47:13;9.10;;;4.83;;
18449;SDS011;9354;50.194;7.690;2023-01-24T00:49:40;9.97;;;4.67;;
18449;SDS011;9354;50.194;7.690;2023-01-24T00:52:08;10.13;;;5.30;;
18449;SDS011;9354;50.194;7.690;2023-01-24T00:54:36;8.97;;;5.07;;
18449;SDS011;9354;50.194;7.690;2023-01-24T00:57:04;8.17;;;4.63;;
18449;SDS011;9354;50.194;7.690;2023-01-24T00:59:31;11.03;;;4.97;;
18449;SDS011;9354;50.194;7.690;2023-01-24T01:01:58;10.00;;;4.73;;
18449;SDS011;9354;50.194;7.690;2023-01-24T01:04:26;10.93;;;4.67;;
18449;SDS011;9354;50.194;7.690;2023-01-24T01:06:53;7.23;;;4.27;;
18449;SDS011;9354;50.194;7.690;2023-01-24T01:09:21;8.80;;;4.40;;
18449;SDS011;9354;50.194;7.690;2023-01-24T01:11:49;9.00;;;4.47;;
18449;SDS011;9354;50.194;7.690;2023-01-24T01:14:17;9.13;;;4.93;;
18449;SDS011;9354;50.194;7.690;2023-01-24T01:16:44;8.10;;;4.67;;
18449;SDS011;9354;50.194;7.690;2023-01-24T01:19:11;9.83;;;4.97;;
18449;SDS011;9354;50.194;7.690;2023-01-24T01:21:39;8.13;;;4.43;;
18449;SDS011;9354;50.194;7.690;2023-01-24T01:24:09;7.27;;;4.70;;
18449;SDS011;9354;50.194;7.690;2023-01-24T01:26:37;8.83;;;4.53;;
18449;SDS011;9354;50.194;7.690;2023-01-24T01:29:06;11.53;;;5.47;;
18449;SDS011;9354;50.194;7.690;2023-01-24T01:31:33;7.33;;;4.20;;
18449;SDS011;9354;50.194;7.690;2023-01-24T01:34:02;10.50;;;4.30;;
18449;SDS011;9354;50.194;7.690;2023-01-24T01:36:29;9.20;;;4.30;;
18449;SDS011;9354;50.194;7.690;2023-01-24T01:38:57;7.60;;;4.27;;
18449;SDS011;9354;50.194;7.690;2023-01-24T01:41:24;8.60;;;3.97;;
18449;SDS011;9354;50.194;7.690;2023-01-24T01:43:52;8.67;;;4.60;;
18449;SDS011;9354;50.194;7.690;2023-01-24T01:46:40;8.40;;;4.70;;
18449;SDS011;9354;50.194;7.690;2023-01-24T01:49:14;10.43;;;4.40;;
18449;SDS011;9354;50.194;7.690;2023-01-24T01:51:47;10.77;;;4.13;;
18449;SDS011;9354;50.194;7.690;2023-01-24T01:54:17;9.33;;;4.80;;
18449;SDS011;9354;50.194;7.690;2023-01-24T01:56:49;6.57;;;3.80;;
18449;SDS011;9354;50.194;7.690;2023-01-24T01:59:23;7.13;;;4.23;;
18449;SDS011;9354;50.194;7.690;2023-01-24T02:01:55;10.13;;;4.10;;
18449;SDS011;9354;50.194;7.690;2023-01-24T02:04:27;9.27;;;4.90;;
18449;SDS011;9354;50.194;7.690;2023-01-24T02:06:59;10.10;;;4.80;;
18449;SDS011;9354;50.194;7.690;2023-01-24T02:09:31;7.00;;;4.10;;
18449;SDS011;9354;50.194;7.690;2023-01-24T02:12:03;8.23;;;4.47;;
18449;SDS011;9354;50.194;7.690;2023-01-24T02:14:33;9.20;;;4.70;;
18449;SDS011;9354;50.194;7.690;2023-01-24T02:17:21;7.93;;;4.00;;
18449;SDS011;9354;50.194;7.690;2023-01-24T02:19:51;8.67;;;4.60;;
18449;SDS011;9354;50.194;7.690;2023-01-24T02:22:29;7.23;;;3.90;;
18449;SDS011;9354;50.194;7.690;2023-01-24T02:25:06;5.27;;;2.97;;
18449;SDS011;9354;50.194;7.690;2023-01-24T02:27:40;7.60;;;4.07;;
18449;SDS011;9354;50.194;7.690;2023-01-24T02:30:09;8.17;;;4.33;;
18449;SDS011;9354;50.194;7.690;2023-01-24T02:32:37;9.33;;;4.27;;
18449;SDS011;9354;50.194;7.690;2023-01-24T02:35:04;7.83;;;4.00;;
18449;SDS011;9354;50.194;7.690;2023-01-24T02:37:32;8.33;;;4.23;;
18449;SDS011;9354;50.194;7.690;2023-01-24T02:40:04;8.73;;;4.37;;
18449;SDS011;9354;50.194;7.690;2023-01-24T02:42:34;9.83;;;4.50;;
18449;SDS011;9354;50.194;7.690;2023-01-24T02:45:06;10.87;;;4.70;;
18449;SDS011;9354;50.194;7.690;2023-01-24T02:47:38;9.60;;;4.70;;
18449;SDS011;9354;50.194;7.690;2023-01-24T02:50:10;6.93;;;4.10;;
18449;SDS011;9354;50.194;7.690;2023-01-24T02:52:38;8.67;;;4.50;;
18449;SDS011;9354;50.194;7.690;2023-01-24T02:55:23;9.13;;;4.67;;
18449;SDS011;9354;50.194;7.690;2023-01-24T02:57:51;9.83;;;4.87;;
18449;SDS011;9354;50.194;7.690;2023-01-24T03:00:34;9.80;;;4.70;;
18449;SDS011;9354;50.194;7.690;2023-01-24T03:03:02;7.97;;;4.00;;
18449;SDS011;9354;50.194;7.690;2023-01-24T03:05:30;7.07;;;4.30;;
18449;SDS011;9354;50.194;7.690;2023-01-24T03:08:05;10.30;;;4.73;;
18449;SDS011;9354;50.194;7.690;2023-01-24T03:10:34;9.33;;;4.70;;
18449;SDS011;9354;50.194;7.690;2023-01-24T03:13:01;9.53;;;4.67;;
18449;SDS011;9354;50.194;7.690;2023-01-24T03:15:47;10.17;;;4.23;;
18449;SDS011;9354;50.194;7.690;2023-01-24T03:18:32;11.87;;;5.13;;
18449;SDS011;9354;50.194;7.690;2023-01-24T03:21:16;8.57;;;4.70;;
18449;SDS011;9354;50.194;7.690;2023-01-24T03:24:02;8.03;;;4.43;;
18449;SDS011;9354;50.194;7.690;2023-01-24T03:26:47;10.27;;;4.23;;
18449;SDS011;9354;50.194;7.690;2023-01-24T03:29:32;9.40;;;5.00;;
18449;SDS011;9354;50.194;7.690;2023-01-24T03:32:18;10.77;;;5.07;;
18449;SDS011;9354;50.194;7.690;2023-01-24T03:35:03;9.30;;;4.80;;
18449;SDS011;9354;50.194;7.690;2023-01-24T03:37:32;10.67;;;5.27;;
18449;SDS011;9354;50.194;7.690;2023-01-24T03:40:16;8.40;;;4.53;;
18449;SDS011;9354;50.194;7.690;2023-01-24T03:42:44;10.70;;;5.37;;
18449;SDS011;9354;50.194;7.690;2023-01-24T03:45:15;11.27;;;5.07;;
18449;SDS011;9354;50.194;7.690;2023-01-24T03:47:48;10.23;;;5.17;;
18449;SDS011;9354;50.194;7.690;2023-01-24T03:50:31;9.30;;;4.10;;
18449;SDS011;9354;50.194;7.690;2023-01-24T03:53:18;9.50;;;5.03;;
18449;SDS011;9354;50.194;7.690;2023-01-24T03:55:50;10.33;;;5.03;;
18449;SDS011;9354;50.194;7.690;2023-01-24T03:58:18;10.67;;;5.00;;
18449;SDS011;9354;50.194;7.690;2023-01-24T04:00:45;9.53;;;4.70;;
18449;SDS011;9354;50.194;7.690;2023-01-24T04:03:14;11.30;;;5.00;;
18449;SDS011;9354;50.194;7.690;2023-01-24T04:05:41;11.23;;;5.53;;
18449;SDS011;9354;50.194;7.690;2023-01-24T04:08:09;10.70;;;5.63;;
18449;SDS011;9354;50.194;7.690;2023-01-24T04:10:36;11.20;;;5.40;;
18449;SDS011;9354;50.194;7.690;2023-01-24T04:13:05;11.73;;;5.17;;
18449;SDS011;9354;50.194;7.690;2023-01-24T04:15:34;10.73;;;5.50;;
18449;SDS011;9354;50.194;7.690;2023-01-24T04:18:02;14.43;;;5.57;;
18449;SDS011;9354;50.194;7.690;2023-01-24T04:20:34;9.60;;;4.80;;
18449;SDS011;9354;50.194;7.690;2023-01-24T04:23:03;12.03;;;5.80;;
18449;SDS011;9354;50.194;7.690;2023-01-24T04:25:31;9.97;;;5.57;;
18449;SDS011;9354;50.194;7.690;2023-01-24T04:27:59;11.70;;;5.00;;
18449;SDS011;9354;50.194;7.690;2023-01-24T04:30:28;11.70;;;5.43;;
18449;SDS011;9354;50.194;7.690;2023-01-24T04:32:55;10.60;;;5.40;;
18449;SDS011;9354;50.194;7.690;2023-01-24T04:35:23;11.70;;;5.67;;
18449;SDS011;9354;50.194;7.690;2023-01-24T04:37:55;10.80;;;5.70;;
18449;SDS011;9354;50.194;7.690;2023-01-24T04:40:24;12.50;;;5.73;;
18449;SDS011;9354;50.194;7.690;2023-01-24T04:42:51;12.37;;;6.27;;
18449;SDS011;9354;50.194;7.690;2023-01-24T04:45:18;14.00;;;6.03;;
18449;SDS011;9354;50.194;7.690;2023-01-24T04:47:46;13.03;;;5.70;;
18449;SDS011;9354;50.194;7.690;2023-01-24T04:50:13;12.13;;;6.10;;
18449;SDS011;9354;50.194;7.690;2023-01-24T04:52:41;10.67;;;5.40;;
18449;SDS011;9354;50.194;7.690;2023-01-24T04:55:10;11.37;;;6.00;;
18449;SDS011;9354;50.194;7.690;2023-01-24T04:57:37;12.60;;;6.30;;
18449;SDS011;9354;50.194;7.690;2023-01-24T05:00:06;11.50;;;6.40;;
18449;SDS011;9354;50.194;7.690;2023-01-24T05:02:34;11.73;;;5.90;;
18449;SDS011;9354;50.194;7.690;2023-01-24T05:05:02;11.83;;;6.07;;
18449;SDS011;9354;50.194;7.690;2023-01-24T05:07:31;13.30;;;6.50;;
18449;SDS011;9354;50.194;7.690;2023-01-24T05:09:58;13.07;;;6.47;;
18449;SDS011;9354;50.194;7.690;2023-01-24T05:12:27;12.70;;;6.30;;
18449;SDS011;9354;50.194;7.690;2023-01-24T05:14:54;16.07;;;7.10;;
18449;SDS011;9354;50.194;7.690;2023-01-24T05:17:22;15.23;;;6.97;;
18449;SDS011;9354;50.194;7.690;2023-01-24T05:19:49;11.93;;;6.03;;
18449;SDS011;9354;50.194;7.690;2023-01-24T05:22:16;13.83;;;6.27;;
18449;SDS011;9354;50.194;7.690;2023-01-24T05:24:44;16.73;;;6.90;;
18449;SDS011;9354;50.194;7.690;2023-01-24T05:27:11;13.97;;;6.63;;
18449;SDS011;9354;50.194;7.690;2023-01-24T05:29:40;14.93;;;6.90;;
18449;SDS011;9354;50.194;7.690;2023-01-24T05:32:07;14.00;;;6.70;;
18449;SDS011;9354;50.194;7.690;2023-01-24T05:34:35;15.47;;;6.90;;
18449;SDS011;9354;50.194;7.690;2023-01-24T05:37:02;14.50;;;7.20;;
18449;SDS011;9354;50.194;7.690;2023-01-24T05:39:29;18.43;;;7.83;;
18449;SDS011;9354;50.194;7.690;2023-01-24T05:41:57;14.27;;;6.60;;
18449;SDS011;9354;50.194;7.690;2023-01-24T05:44:24;14.90;;;6.40;;
18449;SDS011;9354;50.194;7.690;2023-01-24T05:46:53;14.40;;;6.40;;
18449;SDS011;9354;50.194;7.690;2023-01-24T05:49:20;14.47;;;7.03;;
18449;SDS011;9354;50.194;7.690;2023-01-24T05:51:48;13.73;;;6.90;;
18449;SDS011;9354;50.194;7.690;2023-01-24T05:54:15;17.60;;;7.10;;
18449;SDS011;9354;50.194;7.690;2023-01-24T05:56:43;17.00;;;7.67;;
18449;SDS011;9354;50.194;7.690;2023-01-24T05:59:10;15.67;;;7.27;;
18449;SDS011;9354;50.194;7.690;2023-01-24T06:01:39;18.77;;;7.93;;
18449;SDS011;9354;50.194;7.690;2023-01-24T06:04:07;18.20;;;7.40;;
18449;SDS011;9354;50.194;7.690;2023-01-24T06:06:35;15.03;;;7.00;;
18449;SDS011;9354;50.194;7.690;2023-01-24T06:09:02;17.77;;;8.23;;
18449;SDS011;9354;50.194;7.690;2023-01-24T06:11:42;17.53;;;7.53;;
18449;SDS011;9354;50.194;7.690;2023-01-24T06:14:09;14.50;;;7.47;;
18449;SDS011;9354;50.194;7.690;2023-01-24T06:16:37;17.20;;;7.53;;
18449;SDS011;9354;50.194;7.690;2023-01-24T06:19:05;15.97;;;7.13;;
18449;SDS011;9354;50.194;7.690;2023-01-24T06:21:39;17.27;;;7.60;;
18449;SDS011;9354;50.194;7.690;2023-01-24T06:24:14;15.77;;;7.40;;
18449;SDS011;9354;50.194;7.690;2023-01-24T06:26:44;17.23;;;7.47;;
18449;SDS011;9354;50.194;7.690;2023-01-24T06:29:13;16.37;;;6.57;;
18449;SDS011;9354;50.194;7.690;2023-01-24T06:31:43;15.20;;;7.37;;
18449;SDS011;9354;50.194;7.690;2023-01-24T06:34:31;19.00;;;7.73;;
18449;SDS011;9354;50.194;7.690;2023-01-24T06:37:10;17.83;;;7.83;;
18449;SDS011;9354;50.194;7.690;2023-01-24T06:39:44;16.73;;;7.07;;
18449;SDS011;9354;50.194;7.690;2023-01-24T06:42:15;18.20;;;8.10;;
18449;SDS011;9354;50.194;7.690;2023-01-24T06:44:43;15.90;;;7.73;;
18449;SDS011;9354;50.194;7.690;2023-01-24T06:47:11;18.97;;;7.87;;
18449;SDS011;9354;50.194;7.690;2023-01-24T06:49:40;17.50;;;7.77;;
18449;SDS011;9354;50.194;7.690;2023-01-24T06:52:08;19.20;;;8.83;;
18449;SDS011;9354;50.194;7.690;2023-01-24T06:54:36;18.43;;;8.40;;
18449;SDS011;9354;50.194;7.690;2023-01-24T06:57:03;20.40;;;9.17;;
18449;SDS011;9354;50.194;7.690;2023-01-24T06:59:30;19.77;;;7.90;;
18449;SDS011;9354;50.194;7.690;2023-01-24T07:01:58;15.87;;;7.57;;
18449;SDS011;9354;50.194;7.690;2023-01-24T07:04:25;21.20;;;8.30;;
18449;SDS011;9354;50.194;7.690;2023-01-24T07:06:54;20.47;;;8.70;;
18449;SDS011;9354;50.194;7.690;2023-01-24T07:09:22;21.33;;;8.40;;
18449;SDS011;9354;50.194;7.690;2023-01-24T07:11:50;18.47;;;8.10;;
18449;SDS011;9354;50.194;7.690;2023-01-24T07:14:20;17.77;;;7.50;;
18449;SDS011;9354;50.194;7.690;2023-01-24T07:16:48;17.30;;;8.27;;
18449;SDS011;9354;50.194;7.690;2023-01-24T07:19:17;21.17;;;7.97;;
18449;SDS011;9354;50.194;7.690;2023-01-24T07:21:47;17.10;;;8.43;;
18449;SDS011;9354;50.194;7.690;2023-01-24T07:24:18;18.83;;;7.97;;
18449;SDS011;9354;50.194;7.690;2023-01-24T07:26:47;20.47;;;8.97;;
18449;SDS011;9354;50.194;7.690;2023-01-24T07:29:16;21.40;;;7.93;;
18449;SDS011;9354;50.194;7.690;2023-01-24T07:31:44;19.53;;;7.77;;
18449;SDS011;9354;50.194;7.690;2023-01-24T07:34:13;19.20;;;8.10;;
18449;SDS011;9354;50.194;7.690;2023-01-24T07:36:41;19.07;;;8.50;;
18449;SDS011;9354;50.194;7.690;2023-01-24T07:39:08;18.57;;;8.33;;
18449;SDS011;9354;50.194;7.690;2023-01-24T07:41:37;42.93;;;8.70;;
18449;SDS011;9354;50.194;7.690;2023-01-24T07:44:06;23.57;;;8.60;;
18449;SDS011;9354;50.194;7.690;2023-01-24T07:46:33;15.57;;;7.33;;
18449;SDS011;9354;50.194;7.690;2023-01-24T07:49:01;19.40;;;8.77;;
18449;SDS011;9354;50.194;7.690;2023-01-24T07:51:29;17.00;;;7.53;;
18449;SDS011;9354;50.194;7.690;2023-01-24T07:53:56;21.57;;;8.60;;
18449;SDS011;9354;50.194;7.690;2023-01-24T07:56:23;21.23;;;8.53;;
18449;SDS011;9354;50.194;7.690;2023-01-24T07:58:52;20.07;;;8.67;;
18449;SDS011;9354;50.194;7.690;2023-01-24T08:01:21;23.27;;;8.20;;
18449;SDS011;9354;50.194;7.690;2023-01-24T08:03:50;20.80;;;8.80;;
18449;SDS011;9354;50.194;7.690;2023-01-24T08:06:19;18.27;;;8.50;;
18449;SDS011;9354;50.194;7.690;2023-01-24T08:08:47;20.60;;;8.63;;
18449;SDS011;9354;50.194;7.690;2023-01-24T08:11:14;17.87;;;7.90;;
18449;SDS011;9354;50.194;7.690;2023-01-24T08:13:43;17.00;;;8.33;;
18449;SDS011;9354;50.194;7.690;2023-01-24T08:16:12;54.70;;;10.50;;
18449;SDS011;9354;50.194;7.690;2023-01-24T08:18:40;22.20;;;8.67;;
18449;SDS011;9354;50.194;7.690;2023-01-24T08:21:07;17.57;;;7.73;;
18449;SDS011;9354;50.194;7.690;2023-01-24T08:23:35;20.03;;;8.40;;
18449;SDS011;9354;50.194;7.690;2023-01-24T08:26:02;18.97;;;8.77;;
18449;SDS011;9354;50.194;7.690;2023-01-24T08:28:32;17.97;;;8.13;;
18449;SDS011;9354;50.194;7.690;2023-01-24T08:30:59;20.20;;;8.57;;
18449;SDS011;9354;50.194;7.690;2023-01-24T08:33:28;20.43;;;8.60;;
18449;SDS011;9354;50.194;7.690;2023-01-24T08:35:55;18.77;;;7.70;;
18449;SDS011;9354;50.194;7.690;2023-01-24T08:38:25;19.27;;;8.87;;
18449;SDS011;9354;50.194;7.690;2023-01-24T08:40:52;18.13;;;8.33;;
18449;SDS011;9354;50.194;7.690;2023-01-24T08:43:20;22.40;;;8.53;;
18449;SDS011;9354;50.194;7.690;2023-01-24T08:45:47;20.10;;;8.97;;
18449;SDS011;9354;50.194;7.690;2023-01-24T08:48:15;19.87;;;8.70;;
18449;SDS011;9354;50.194;7.690;2023-01-24T08:50:44;21.03;;;8.70;;
18449;SDS011;9354;50.194;7.690;2023-01-24T08:53:11;18.40;;;8.50;;
18449;SDS011;9354;50.194;7.690;2023-01-24T08:55:40;19.33;;;8.30;;
18449;SDS011;9354;50.194;7.690;2023-01-24T08:58:07;16.53;;;7.67;;
18449;SDS011;9354;50.194;7.690;2023-01-24T09:00:35;16.90;;;8.00;;
18449;SDS011;9354;50.194;7.690;2023-01-24T09:03:02;19.80;;;8.27;;
18449;SDS011;9354;50.194;7.690;2023-01-24T09:05:30;22.53;;;9.10;;
18449;SDS011;9354;50.194;7.690;2023-01-24T09:07:59;18.47;;;7.27;;
18449;SDS011;9354;50.194;7.690;2023-01-24T09:10:26;20.20;;;8.63;;
18449;SDS011;9354;50.194;7.690;2023-01-24T09:12:53;20.10;;;8.10;;
18449;SDS011;9354;50.194;7.690;2023-01-24T09:15:21;18.37;;;8.00;;
18449;SDS011;9354;50.194;7.690;2023-01-24T09:17:48;16.47;;;7.87;;
18449;SDS011;9354;50.194;7.690;2023-01-24T09:20:16;21.13;;;8.60;;
18449;SDS011;9354;50.194;7.690;2023-01-24T09:22:44;19.97;;;9.03;;
18449;SDS011;9354;50.194;7.690;2023-01-24T09:25:13;19.43;;;8.70;;
18449;SDS011;9354;50.194;7.690;2023-01-24T09:27:40;20.10;;;8.43;;
18449;SDS011;9354;50.194;7.690;2023-01-24T09:30:08;21.20;;;9.30;;
18449;SDS011;9354;50.194;7.690;2023-01-24T09:32:36;20.10;;;8.57;;
18449;SDS011;9354;50.194;7.690;2023-01-24T09:35:04;19.33;;;8.17;;
18449;SDS011;9354;50.194;7.690;2023-01-24T09:37:32;19.40;;;8.43;;
18449;SDS011;9354;50.194;7.690;2023-01-24T09:39:59;17.73;;;8.00;;
18449;SDS011;9354;50.194;7.690;2023-01-24T09:42:30;18.07;;;8.47;;
18449;SDS011;9354;50.194;7.690;2023-01-24T09:45:08;23.67;;;8.50;;
18449;SDS011;9354;50.194;7.690;2023-01-24T09:47:43;17.60;;;8.27;;
18449;SDS011;9354;50.194;7.690;2023-01-24T09:50:16;16.87;;;7.80;;
18449;SDS011;9354;50.194;7.690;2023-01-24T09:52:47;19.37;;;7.50;;
18449;SDS011;9354;50.194;7.690;2023-01-24T09:55:19;21.23;;;8.60;;
18449;SDS011;9354;50.194;7.690;2023-01-24T09:57:54;20.47;;;7.53;;
18449;SDS011;9354;50.194;7.690;2023-01-24T10:00:26;16.67;;;7.33;;
18449;SDS011;9354;50.194;7.690;2023-01-24T10:02:55;23.77;;;7.50;;
18449;SDS011;9354;50.194;7.690;2023-01-24T10:05:28;14.73;;;6.70;;
18449;SDS011;9354;50.194;7.690;2023-01-24T10:08:11;17.50;;;7.33;;
18449;SDS011;9354;50.194;7.690;2023-01-24T10:10:49;19.50;;;7.80;;
18449;SDS011;9354;50.194;7.690;2023-01-24T10:16:42;19.67;;;7.40;;
18449;SDS011;9354;50.194;7.690;2023-01-24T10:19:53;18.47;;;8.03;;
18449;SDS011;9354;50.194;7.690;2023-01-24T10:22:40;19.67;;;8.40;;
18449;SDS011;9354;50.194;7.690;2023-01-24T10:25:24;16.43;;;8.17;;
18449;SDS011;9354;50.194;7.690;2023-01-24T10:27:54;19.73;;;8.30;;
18449;SDS011;9354;50.194;7.690;2023-01-24T10:30:26;22.30;;;9.70;;
18449;SDS011;9354;50.194;7.690;2023-01-24T10:33:03;21.53;;;9.00;;
18449;SDS011;9354;50.194;7.690;2023-01-24T10:35:38;23.57;;;9.53;;
18449;SDS011;9354;50.194;7.690;2023-01-24T10:38:18;23.00;;;8.50;;
18449;SDS011;9354;50.194;7.690;2023-01-24T10:40:49;23.00;;;9.40;;
18449;SDS011;9354;50.194;7.690;2023-01-24T10:43:18;26.57;;;10.40;;
18449;SDS011;9354;50.194;7.690;2023-01-24T10:45:51;19.73;;;9.00;;
18449;SDS011;9354;50.194;7.690;2023-01-24T10:48:34;21.07;;;10.10;;
18449;SDS011;9354;50.194;7.690;2023-01-24T10:51:09;22.23;;;9.77;;
18449;SDS011;9354;50.194;7.690;2023-01-24T10:53:39;22.10;;;9.60;;
18449;SDS011;9354;50.194;7.690;2023-01-24T10:56:06;23.27;;;11.07;;
18449;SDS011;9354;50.194;7.690;2023-01-24T10:58:35;25.20;;;10.47;;
18449;SDS011;9354;50.194;7.690;2023-01-24T11:01:07;23.53;;;9.67;;
18449;SDS011;9354;50.194;7.690;2023-01-24T11:03:45;26.33;;;9.83;;
18449;SDS011;9354;50.194;7.690;2023-01-24T11:06:24;21.17;;;9.10;;
18449;SDS011;9354;50.194;7.690;2023-01-24T11:09:01;22.13;;;10.00;;
18449;SDS011;9354;50.194;7.690;2023-01-24T11:11:31;23.10;;;10.10;;
18449;SDS011;9354;50.194;7.690;2023-01-24T11:13:59;24.37;;;9.53;;
18449;SDS011;9354;50.194;7.690;2023-01-24T11:16:30;23.33;;;9.53;;
18449;SDS011;9354;50.194;7.690;2023-01-24T11:19:02;23.87;;;10.37;;
18449;SDS011;9354;50.194;7.690;2023-01-24T11:21:31;22.93;;;10.07;;
18449;SDS011;9354;50.194;7.690;2023-01-24T11:24:00;22.33;;;9.87;;
18449;SDS011;9354;50.194;7.690;2023-01-24T11:26:35;24.47;;;10.13;;
18449;SDS011;9354;50.194;7.690;2023-01-24T11:29:17;25.57;;;10.63;;
18449;SDS011;9354;50.194;7.690;2023-01-24T11:31:46;24.80;;;9.47;;
18449;SDS011;9354;50.194;7.690;2023-01-24T11:37:11;25.57;;;10.07;;
18449;SDS011;9354;50.194;7.690;2023-01-24T11:39:49;21.87;;;8.80;;
18449;SDS011;9354;50.194;7.690;2023-01-24T11:42:26;23.67;;;9.60;;
18449;SDS011;9354;50.194;7.690;2023-01-24T11:48:05;24.57;;;9.33;;
18449;SDS011;9354;50.194;7.690;2023-01-24T11:50:38;24.73;;;9.73;;
18449;SDS011;9354;50.194;7.690;2023-01-24T11:53:25;19.13;;;9.00;;
18449;SDS011;9354;50.194;7.690;2023-01-24T11:56:11;21.80;;;9.20;;
18449;SDS011;9354;50.194;7.690;2023-01-24T11:58:50;24.03;;;9.87;;
18449;SDS011;9354;50.194;7.690;2023-01-24T12:01:30;22.37;;;9.43;;
18449;SDS011;9354;50.194;7.690;2023-01-24T12:07:17;23.23;;;9.70;;
18449;SDS011;9354;50.194;7.690;2023-01-24T12:09:49;19.23;;;9.13;;
18449;SDS011;9354;50.194;7.690;2023-01-24T12:12:26;19.53;;;8.77;;
18449;SDS011;9354;50.194;7.690;2023-01-24T12:15:02;19.13;;;7.93;;
18449;SDS011;9354;50.194;7.690;2023-01-24T12:17:47;25.97;;;9.33;;
18449;SDS011;9354;50.194;7.690;2023-01-24T12:20:51;18.83;;;8.23;;
18449;SDS011;9354;50.194;7.690;2023-01-24T12:23:26;24.03;;;9.87;;
18449;SDS011;9354;50.194;7.690;2023-01-24T12:26:02;23.60;;;9.13;;
18449;SDS011;9354;50.194;7.690;2023-01-24T12:28:35;22.40;;;10.10;;
18449;SDS011;9354;50.194;7.690;2023-01-24T12:31:08;19.13;;;8.77;;
18449;SDS011;9354;50.194;7.690;2023-01-24T12:33:42;20.10;;;9.70;;
18449;SDS011;9354;50.194;7.690;2023-01-24T12:36:21;23.50;;;10.10;;
18449;SDS011;9354;50.194;7.690;2023-01-24T12:38:58;23.27;;;9.57;;
18449;SDS011;9354;50.194;7.690;2023-01-24T12:41:31;20.60;;;9.30;;
18449;SDS011;9354;50.194;7.690;2023-01-24T12:44:00;21.47;;;10.17;;
18449;SDS011;9354;50.194;7.690;2023-01-24T12:46:38;20.67;;;8.97;;
18449;SDS011;9354;50.194;7.690;2023-01-24T12:49:19;19.87;;;8.17;;
18449;SDS011;9354;50.194;7.690;2023-01-24T12:51:55;17.87;;;7.73;;
18449;SDS011;9354;50.194;7.690;2023-01-24T12:54:30;20.70;;;8.60;;
18449;SDS011;9354;50.194;7.690;2023-01-24T12:57:04;19.23;;;8.63;;
18449;SDS011;9354;50.194;7.690;2023-01-24T12:59:38;20.37;;;8.93;;
18449;SDS011;9354;50.194;7.690;2023-01-24T13:02:27;15.80;;;7.50;;
18449;SDS011;9354;50.194;7.690;2023-01-24T13:05:17;16.00;;;7.40;;
18449;SDS011;9354;50.194;7.690;2023-01-24T13:07:57;19.10;;;8.30;;
18449;SDS011;9354;50.194;7.690;2023-01-24T13:10:42;17.70;;;8.33;;
18449;SDS011;9354;50.194;7.690;2023-01-24T13:13:22;18.20;;;8.00;;
18449;SDS011;9354;50.194;7.690;2023-01-24T13:15:56;20.87;;;7.80;;
18449;SDS011;9354;50.194;7.690;2023-01-24T13:18:38;16.73;;;7.27;;
18449;SDS011;9354;50.194;7.690;2023-01-24T13:21:14;16.30;;;7.37;;
18449;SDS011;9354;50.194;7.690;2023-01-24T13:23:58;18.13;;;8.13;;
18449;SDS011;9354;50.194;7.690;2023-01-24T13:26:56;18.13;;;8.50;;
18449;SDS011;9354;50.194;7.690;2023-01-24T13:29:38;50.83;;;10.57;;
18449;SDS011;9354;50.194;7.690;2023-01-24T13:32:17;19.03;;;8.27;;
18449;SDS011;9354;50.194;7.690;2023-01-24T13:34:48;19.67;;;7.77;;
18449;SDS011;9354;50.194;7.690;2023-01-24T13:37:18;19.67;;;8.13;;
18449;SDS011;9354;50.194;7.690;2023-01-24T13:39:53;20.03;;;8.63;;
18449;SDS011;9354;50.194;7.690;2023-01-24T13:42:35;15.47;;;7.17;;
18449;SDS011;9354;50.194;7.690;2023-01-24T13:51:30;16.93;;;7.20;;
18449;SDS011;9354;50.194;7.690;2023-01-24T13:54:15;18.60;;;8.33;;
18449;SDS011;9354;50.194;7.690;2023-01-24T13:57:10;14.97;;;6.90;;
18449;SDS011;9354;50.194;7.690;2023-01-24T14:02:57;19.17;;;7.70;;
18449;SDS011;9354;50.194;7.690;2023-01-24T14:05:40;18.47;;;8.63;;
18449;SDS011;9354;50.194;7.690;2023-01-24T14:08:30;25.20;;;8.47;;
18449;SDS011;9354;50.194;7.690;2023-01-24T14:11:20;14.93;;;6.83;;
18449;SDS011;9354;50.194;7.690;2023-01-24T14:13:55;15.50;;;7.17;;
18449;SDS011;9354;50.194;7.690;2023-01-24T14:19:25;15.00;;;7.20;;
18449;SDS011;9354;50.194;7.690;2023-01-24T14:21:57;17.63;;;7.90;;
18449;SDS011;9354;50.194;7.690;2023-01-24T14:24:34;16.63;;;7.43;;
18449;SDS011;9354;50.194;7.690;2023-01-24T14:27:14;16.87;;;7.80;;
18449;SDS011;9354;50.194;7.690;2023-01-24T14:29:45;15.33;;;7.00;;
18449;SDS011;9354;50.194;7.690;2023-01-24T14:32:20;17.20;;;8.37;;
18449;SDS011;9354;50.194;7.690;2023-01-24T14:34:57;16.77;;;8.23;;
18449;SDS011;9354;50.194;7.690;2023-01-24T14:37:30;20.43;;;8.97;;
18449;SDS011;9354;50.194;7.690;2023-01-24T14:40:11;21.57;;;9.30;;
18449;SDS011;9354;50.194;7.690;2023-01-24T14:42:45;20.20;;;8.60;;
18449;SDS011;9354;50.194;7.690;2023-01-24T14:45:14;18.80;;;8.17;;
18449;SDS011;9354;50.194;7.690;2023-01-24T14:47:48;12.30;;;6.67;;
18449;SDS011;9354;50.194;7.690;2023-01-24T14:50:24;20.27;;;7.47;;
18449;SDS011;9354;50.194;7.690;2023-01-24T14:52:53;20.87;;;8.63;;
18449;SDS011;9354;50.194;7.690;2023-01-24T14:55:30;19.00;;;9.03;;
18449;SDS011;9354;50.194;7.690;2023-01-24T14:58:13;19.33;;;8.57;;
18449;SDS011;9354;50.194;7.690;2023-01-24T15:00:42;16.60;;;8.30;;
18449;SDS011;9354;50.194;7.690;2023-01-24T15:03:15;17.37;;;7.93;;
18449;SDS011;9354;50.194;7.690;2023-01-24T15:05:52;17.90;;;8.43;;
18449;SDS011;9354;50.194;7.690;2023-01-24T15:08:21;18.00;;;8.27;;
18449;SDS011;9354;50.194;7.690;2023-01-24T15:10:54;17.70;;;8.77;;
18449;SDS011;9354;50.194;7.690;2023-01-24T15:13:26;15.43;;;7.77;;
18449;SDS011;9354;50.194;7.690;2023-01-24T15:15:56;15.00;;;7.63;;
18449;SDS011;9354;50.194;7.690;2023-01-24T15:18:29;18.73;;;8.30;;
18449;SDS011;9354;50.194;7.690;2023-01-24T15:21:17;17.87;;;8.10;;
18449;SDS011;9354;50.194;7.690;2023-01-24T15:23:51;14.13;;;7.13;;
18449;SDS011;9354;50.194;7.690;2023-01-24T15:26:22;14.67;;;7.13;;
18449;SDS011;9354;50.194;7.690;2023-01-24T15:28:51;18.17;;;7.60;;
18449;SDS011;9354;50.194;7.690;2023-01-24T15:31:20;14.53;;;7.43;;
18449;SDS011;9354;50.194;7.690;2023-01-24T15:33:54;15.97;;;7.23;;
18449;SDS011;9354;50.194;7.690;2023-01-24T15:36:23;15.70;;;7.30;;
18449;SDS011;9354;50.194;7.690;2023-01-24T15:38:52;16.23;;;7.47;;
18449;SDS011;9354;50.194;7.690;2023-01-24T15:41:22;15.10;;;7.17;;
18449;SDS011;9354;50.194;7.690;2023-01-24T15:44:10;17.73;;;7.80;;